Terminal Aerodrome Forecast
Issued by NWS Atlanta, GA

Current Version | Previous Version | Text Only | Print | Product List | Glossary On
Versions: 1 2 3 4 5 6 7 8 9 10 11 12
658
FTUS42 KFFC 131125
TAFCSG
TAF
KCSG 131125Z 1312/1412 35008KT P6SM SKC
     FM140000 01004KT P6SM SKC
     FM141000 07004KT P6SM SCT080=

USA.gov is the U.S. government's official web portal to all federal, state and local government web resources and services.